Twin Falls, ID (83301)

11:17 PM MST on February 11, 2016 (GMT -0700)
Joslin Field-Magic Valley Regional | | Change Station
CLOSE
Current Station
Airport
Location: Twin Falls,
Elevation: 4150 ft
Nearby Weather Stations

Elev 4150 ft 42.48 °N, 114.49 °W | Updated 24 minutes ago

Clear
Clear
31 °F
Feels Like 22 °F
N
10
Wind Variable Wind from East

Today
High -- | Low -- °F
--% Chance of Precip.
Yesterday
High -- | Low -- °F
Precip. -- in
Pressure 30.32 in
Visibility 7.0 miles
Clouds Clear
Windchill 22 °F
Dew Point 29 °F
Humidity 92%
Rainfall 0.00 in
Snow Depth Not available.
7:40 AM 6:04 PM
Waxing Crescent, 17% visible
METAR KTWF 120553Z AUTO 10009KT 7SM CLR M01/M02 A3030 RMK AO2 SLP268 T10061017 10033 21011 58006
Pressure 30.32 in
Visibility 7.0 miles
Clouds Clear
Windchill 22 °F
Dew Point 29 °F
Humidity 92%
Rainfall 0.00 in
Snow Depth Not available.
7:40 AM 6:04 PM
Waxing Crescent, 17% visible
METAR KTWF 120553Z AUTO 10009KT 7SM CLR M01/M02 A3030 RMK AO2 SLP268 T10061017 10033 21011 58006

10-Day Weather Forecast

Almanac

Astronomy

Feb. 11, 2016 Rise Set
Actual Time
Civil Twilight
Nautical Twilight
Astronomical Twilight
Moon
Length of Visible Light
Length of Day
Tomorrow will be .
, % of the Moon is Illuminated

Today's Extremes

State Highs State Lows

Community

WunderPhotos

Upload Photos

1,892,273 photos uploaded!

WunderBlog® & News

Nearby

Air Quality

  Air Quality AQ Index Pollutant
Not available.

Snow Depth

Station Depth Elevation

Earthquake Activity

City Distance Mag. Time & Date
Minimum magnitude displayed is 2.5.

Coastal Water Temperatures

Place Temperature

Stations

Nearby Weather Stations

Station Location Temp. Windchill Dew Point Humidity Wind Precip. Elev Updated Type
                   

Watches & Warnings

There are currently no watches in effect.